This is the latest recevied weather packets stored in our database for station/object N3WMC. If no packets are shown the sender has not sent any weather packets the latest 10 day(s).
| Time | Temp. | Humidity | Pressure | Rain* | Wind** | Luminosity | Snow |
|---|---|---|---|---|---|---|---|
| 1777914970 | 21.67° C | 45% | 1009.9 hPa | 0 mm | - | 744 W/m² | - |
| 1777914667 | 20.56° C | 43% | 1009.9 hPa | 0 mm | - | 329 W/m² | - |
| 1777914362 | 21.11° C | 43% | 1010.1 hPa | 0 mm | - | 749 W/m² | - |
| 1777914061 | 21.11° C | 45% | 1010 hPa | 0 mm | - | 711 W/m² | - |
| 1777913756 | 21.11° C | 43% | 1010.2 hPa | 0 mm | - | 702 W/m² | - |
| 1777913453 | 21.11° C | 45% | 1010.4 hPa | 0 mm | - | 704 W/m² | - |
| 1777913149 | 20.56° C | 45% | 1010.5 hPa | 0 mm | - | 704 W/m² | - |
| 1777912846 | 20.56° C | 43% | 1010.5 hPa | 0 mm | - | 706 W/m² | - |
| 1777912543 | 20.56° C | 43% | 1010.8 hPa | 0 mm | - | 700 W/m² | - |
| 1777912239 | 20° C | 44% | 1010.7 hPa | 0 mm | - | 699 W/m² | - |
| 1777911935 | 19.44° C | 47% | 1010.7 hPa | 0 mm | - | 697 W/m² | - |
| 1777911631 | 20° C | 43% | 1010.8 hPa | 0 mm | - | 693 W/m² | - |
| 1777911327 | 20° C | 44% | 1010.7 hPa | 0 mm | - | 692 W/m² | - |
| 1777911026 | 20° C | 43% | 1010.9 hPa | 0 mm | - | 680 W/m² | - |
| 1777910723 | 20° C | 45% | 1010.9 hPa | 0 mm | - | 678 W/m² | - |
| 1777910419 | 19.44° C | 44% | 1011.1 hPa | 0 mm | - | 674 W/m² | - |
| 1777910116 | 19.44° C | 44% | 1011 hPa | 0 mm | - | 666 W/m² | - |
| 1777909814 | 19.44° C | 46% | 1011.1 hPa | 0 mm | - | 664 W/m² | - |
| 1777909510 | 19.44° C | 44% | 1011.2 hPa | 0 mm | - | 659 W/m² | - |
| 1777909208 | 19.44° C | 46% | 1011.2 hPa | 0 mm | - | 656 W/m² | - |
| 1777908905 | 18.89° C | 46% | 1011.3 hPa | 0 mm | - | 643 W/m² | - |
| 1777908603 | 18.89° C | 44% | 1011.3 hPa | 0 mm | - | 643 W/m² | - |
| 1777908299 | 18.33° C | 45% | 1011.5 hPa | 0 mm | - | 638 W/m² | - |
| 1777907995 | 18.33° C | 45% | 1011.4 hPa | 0 mm | - | 634 W/m² | - |
| 1777907691 | 18.33° C | 46% | 1011.4 hPa | 0 mm | - | 623 W/m² | - |
* Rain latest hour (hover to see other rain measurements)
** Current wind speed in m/s (hover to see current wind gust speed)